createdAt,value
2019-02-26T00:00:36.528Z,1.1
2019-02-26T00:05:33.296Z,1
2019-02-26T00:10:31.447Z,1
2019-02-26T00:15:26.977Z,1
2019-02-26T00:20:23.676Z,1
2019-02-26T00:25:20.729Z,0.8
2019-02-26T00:30:18.605Z,1
2019-02-26T00:35:15.949Z,1
2019-02-26T00:40:12.272Z,0.4
2019-02-26T00:45:08.646Z,0.8
2019-02-26T00:50:07.174Z,0.3
2019-02-26T00:55:04.552Z,0.5
2019-02-26T01:00:00.644Z,0.9
2019-02-26T01:04:56.079Z,0.8
2019-02-26T01:09:54.673Z,0.6
2019-02-26T01:14:50.385Z,0.2
2019-02-26T01:19:47.051Z,0.1
2019-02-26T01:24:43.673Z,0.1
2019-02-26T01:29:40.910Z,0.1
2019-02-26T01:34:38.798Z,0.1
2019-02-26T01:39:35.611Z,0.1
2019-02-26T01:44:32.884Z,0
2019-02-26T01:49:29.119Z,0.4
2019-02-26T01:54:28.074Z,0.1
2019-02-26T01:59:22.682Z,0
2019-02-26T02:04:19.667Z,0
2019-02-26T02:09:18.538Z,0
2019-02-26T02:14:15.264Z,-0.1
2019-02-26T02:19:15.444Z,0
2019-02-26T02:24:08.890Z,-0.1
2019-02-26T02:29:05.128Z,-0.1
2019-02-26T02:34:01.939Z,-0.1
2019-02-26T02:38:58.796Z,-0.2
2019-02-26T02:43:55.631Z,-0.3
2019-02-26T02:48:52.545Z,-0.2
2019-02-26T02:53:51.001Z,-0.2
2019-02-26T02:58:48.890Z,-0.1
2019-02-26T03:03:45.207Z,-0.2
2019-02-26T03:13:37.910Z,-0.3
2019-02-26T03:18:34.600Z,-0.3
2019-02-26T03:23:33.873Z,-0.3
2019-02-26T03:28:28.837Z,-0.3
2019-02-26T03:33:25.489Z,-0.4
2019-02-26T03:38:23.387Z,-0.4
2019-02-26T03:43:18.988Z,-0.4
2019-02-26T03:48:19.148Z,-0.5
2019-02-26T03:53:12.956Z,-0.5
2019-02-26T03:58:08.424Z,-0.7
2019-02-26T04:03:06.543Z,-0.5
2019-02-26T04:08:04.124Z,-0.5
2019-02-26T04:12:58.683Z,-0.5
2019-02-26T04:17:55.679Z,-0.5
2019-02-26T04:22:53.817Z,-0.5
2019-02-26T04:27:49.544Z,0
2019-02-26T04:32:48.919Z,0
2019-02-26T04:37:43.807Z,-0.5
2019-02-26T04:42:43.576Z,0
2019-02-26T04:47:40.518Z,-0.5
2019-02-26T04:52:37.834Z,-1.1
2019-02-26T04:57:32.690Z,-0.5
2019-02-26T05:02:29.927Z,0
2019-02-26T05:07:26.952Z,-1.2
2019-02-26T05:12:25.278Z,0
2019-02-26T05:17:23.468Z,-0.5
2019-02-26T05:22:19.767Z,-0.5
2019-02-26T05:27:15.478Z,-0.5
2019-02-26T05:32:11.487Z,-0.4
2019-02-26T05:37:10.955Z,-0.5
2019-02-26T05:42:06.256Z,-0.5
2019-02-26T05:47:02.336Z,-0.4
2019-02-26T05:52:01.514Z,-0.4
2019-02-26T05:56:56.366Z,-0.4
2019-02-26T06:01:55.404Z,-0.5
2019-02-26T06:06:50.960Z,-0.7
2019-02-26T06:11:49.847Z,0.1
2019-02-26T06:16:46.116Z,-0.5
2019-02-26T06:21:43.742Z,-0.6
2019-02-26T06:26:40.245Z,-0.4
2019-02-26T06:31:37.106Z,-0.3
2019-02-26T06:36:31.953Z,-0.3
2019-02-26T06:41:29.004Z,-1
2019-02-26T06:46:26.889Z,-0.2
2019-02-26T06:51:24.154Z,0.4
2019-02-26T06:56:20.077Z,-0.1
2019-02-26T07:01:16.945Z,-0.1
2019-02-26T07:06:13.337Z,-0.1
2019-02-26T07:11:10.419Z,0
2019-02-26T07:16:07.296Z,-0.1
2019-02-26T07:21:04.161Z,0.2
2019-02-26T07:26:00.341Z,0.2
2019-02-26T07:30:57.438Z,0.2
2019-02-26T07:35:56.800Z,0.3
2019-02-26T07:40:51.640Z,0.4
2019-02-26T07:45:48.439Z,1
2019-02-26T07:50:47.802Z,0.5
2019-02-26T07:55:42.566Z,0.6
2019-02-26T08:00:40.369Z,-0.1
2019-02-26T08:05:36.410Z,0.8
2019-02-26T08:10:35.660Z,0.9
2019-02-26T08:15:32.765Z,1
2019-02-26T08:20:30.198Z,1.5
2019-02-26T08:25:25.391Z,1.5
2019-02-26T08:30:24.071Z,1.3
2019-02-26T08:35:19.328Z,1.9
2019-02-26T08:40:15.801Z,1.9
2019-02-26T08:45:14.891Z,2
2019-02-26T08:50:10.601Z,2.1
2019-02-26T08:55:07.213Z,2.2
2019-02-26T09:00:03.803Z,2.3
2019-02-26T09:05:01.556Z,2.5
2019-02-26T09:09:57.795Z,2.7
2019-02-26T09:14:54.237Z,2.8
2019-02-26T09:19:53.189Z,2.9
2019-02-26T09:24:49.338Z,2.9
2019-02-26T09:29:49.525Z,3.1
2019-02-26T09:34:41.729Z,2.7
2019-02-26T09:39:39.111Z,3.4
2019-02-26T09:44:36.025Z,3.5
2019-02-26T09:49:33.747Z,3.7
2019-02-26T09:54:29.866Z,3.2
2019-02-26T09:59:28.855Z,3.9
2019-02-26T10:04:24.775Z,4
2019-02-26T10:09:20.801Z,3.6
2019-02-26T10:14:17.449Z,4.6
2019-02-26T10:19:15.257Z,4.8
2019-02-26T10:24:11.588Z,5
2019-02-26T10:29:08.894Z,4.6
2019-02-26T10:34:07.778Z,5.2
2019-02-26T10:39:02.741Z,5.4
2019-02-26T10:43:59.385Z,5.4
2019-02-26T10:48:56.254Z,5.4
2019-02-26T10:53:53.323Z,5.5
2019-02-26T10:58:54.674Z,5
2019-02-26T11:03:49.250Z,5.6
2019-02-26T11:08:44.679Z,5.8
2019-02-26T11:13:43.270Z,5.8
2019-02-26T11:18:39.795Z,5.9
2019-02-26T11:23:36.305Z,6.1
2019-02-26T11:28:37.834Z,6.1
2019-02-26T11:33:30.523Z,6.3
2019-02-26T11:38:27.826Z,6.1
2019-02-26T11:43:26.778Z,6.6
2019-02-26T11:48:23.303Z,6.6
2019-02-26T11:53:18.755Z,6.7
2019-02-26T11:58:18.082Z,6.7
2019-02-26T12:03:12.898Z,6.7
2019-02-26T12:08:11.421Z,6.7
2019-02-26T12:13:07.187Z,6.7
2019-02-26T12:18:03.591Z,6.8
2019-02-26T12:23:00.706Z,6.8
2019-02-26T12:28:00.002Z,6.8
2019-02-26T12:32:55.191Z,6.8
2019-02-26T12:42:48.973Z,6.8
2019-02-26T12:47:48.609Z,6.8
2019-02-26T12:52:44.667Z,6.9
2019-02-26T12:57:40.172Z,6.4
2019-02-26T13:02:39.757Z,6.8
2019-02-26T13:07:33.783Z,6.9
2019-02-26T13:12:32.210Z,6.9
2019-02-26T13:17:29.343Z,6.9
2019-02-26T13:22:25.062Z,6.9
2019-02-26T13:27:22.155Z,6.9
2019-02-26T13:32:21.175Z,6.9
2019-02-26T13:37:15.602Z,6.8
2019-02-26T13:42:13.958Z,6.8
2019-02-26T13:47:09.645Z,6.8
2019-02-26T13:52:06.469Z,6.7
2019-02-26T13:57:04.164Z,6.2
2019-02-26T14:02:01.134Z,6.7
2019-02-26T14:06:58.139Z,6.6
2019-02-26T14:11:55.141Z,6.6
2019-02-26T14:16:51.865Z,6.3
2019-02-26T14:21:49.000Z,6.6
2019-02-26T14:26:46.186Z,6.6
2019-02-26T14:31:43.286Z,6.5
2019-02-26T14:36:40.378Z,6.5
2019-02-26T14:41:37.015Z,6.5
2019-02-26T14:46:32.780Z,6.5
2019-02-26T14:51:29.692Z,6.4
2019-02-26T14:56:26.372Z,6.4
2019-02-26T15:01:23.332Z,6.4
2019-02-26T15:06:20.158Z,6.3
2019-02-26T15:11:17.025Z,6.3
2019-02-26T15:16:13.968Z,6.3
2019-02-26T15:21:10.939Z,6.3
2019-02-26T15:26:08.411Z,6.3
2019-02-26T15:31:05.534Z,6.3
2019-02-26T15:36:02.550Z,6.3
2019-02-26T15:40:59.556Z,6.3
2019-02-26T15:45:57.707Z,6.3
2019-02-26T15:50:53.283Z,6.3
2019-02-26T15:55:50.338Z,6.3
2019-02-26T16:00:47.356Z,6.3
2019-02-26T16:05:44.307Z,6.3
2019-02-26T16:10:41.049Z,6.2
2019-02-26T16:15:37.838Z,6.2
2019-02-26T16:20:34.668Z,6
2019-02-26T16:25:31.737Z,5.9
2019-02-26T16:30:28.823Z,6.1
2019-02-26T16:35:25.844Z,6.1
2019-02-26T16:40:22.977Z,5.5
2019-02-26T16:45:19.881Z,6
2019-02-26T16:50:16.893Z,6
2019-02-26T16:55:17.001Z,6
2019-02-26T17:00:12.821Z,5.9
2019-02-26T17:05:08.119Z,5.9
2019-02-26T17:10:05.147Z,5.9
2019-02-26T17:15:02.089Z,5.9
2019-02-26T17:19:59.125Z,5.9
2019-02-26T17:24:56.668Z,5.3
2019-02-26T17:29:53.788Z,5.9
2019-02-26T17:34:50.852Z,5.9
2019-02-26T17:39:48.180Z,5.8
2019-02-26T17:44:45.019Z,5.9
2019-02-26T17:49:42.065Z,5.8
2019-02-26T17:54:38.807Z,5.7
2019-02-26T17:59:35.736Z,5.8
2019-02-26T18:04:32.797Z,5.8
2019-02-26T18:09:29.857Z,5.8
2019-02-26T18:14:27.353Z,5.3
2019-02-26T18:19:24.164Z,5.8
2019-02-26T18:24:21.358Z,5.8
2019-02-26T18:29:18.144Z,5.8
2019-02-26T18:34:15.111Z,5.8
2019-02-26T18:39:12.192Z,5.2
2019-02-26T18:44:09.635Z,5.8
2019-02-26T18:49:06.672Z,5.8
2019-02-26T18:54:03.362Z,5.6
2019-02-26T18:59:00.047Z,5.8
2019-02-26T19:03:56.762Z,5.7
2019-02-26T19:08:53.881Z,5.7
2019-02-26T19:13:50.795Z,5.7
2019-02-26T19:18:47.872Z,5.7
2019-02-26T19:23:44.665Z,5.7
2019-02-26T19:28:41.784Z,5.7
2019-02-26T19:33:38.288Z,5.7
2019-02-26T19:38:35.339Z,5.6
2019-02-26T19:43:32.119Z,5.6
2019-02-26T19:48:30.626Z,5.6
2019-02-26T19:53:26.678Z,5.6
2019-02-26T19:58:23.871Z,5.7
2019-02-26T20:03:19.779Z,5.7
2019-02-26T20:08:16.792Z,5.6
2019-02-26T20:13:13.940Z,5.6
2019-02-26T20:18:19.998Z,5.6
2019-02-26T20:23:07.906Z,5.6
2019-02-26T20:28:05.640Z,5.6
2019-02-26T20:33:03.885Z,5.6
2019-02-26T20:37:59.334Z,5.1
2019-02-26T20:42:55.962Z,5.5
2019-02-26T20:47:53.056Z,5.6
2019-02-26T20:52:50.575Z,5
2019-02-26T20:57:47.590Z,5.5
2019-02-26T21:02:44.384Z,5.3
2019-02-26T21:07:41.245Z,5.4
2019-02-26T21:12:39.062Z,4.7
2019-02-26T21:17:35.852Z,5.4
2019-02-26T21:22:32.914Z,5.5
2019-02-26T21:27:30.719Z,4.9
2019-02-26T21:32:28.156Z,5.4
2019-02-26T21:37:25.276Z,5.5
2019-02-26T21:42:22.330Z,5.4
2019-02-26T21:47:20.273Z,5.3
2019-02-26T21:52:17.135Z,5.4
2019-02-26T21:57:14.461Z,5.4
2019-02-26T22:02:11.706Z,5.4
2019-02-26T22:07:08.282Z,5.5
2019-02-26T22:12:04.901Z,5.1
2019-02-26T22:17:01.766Z,5.5
2019-02-26T22:21:59.045Z,5.5
2019-02-26T22:26:59.092Z,5.5
2019-02-26T22:31:53.045Z,5.5
2019-02-26T22:36:50.284Z,5.5
2019-02-26T22:41:47.440Z,5.5
2019-02-26T22:46:44.622Z,5.6
2019-02-26T22:51:41.787Z,5.6
2019-02-26T22:56:38.983Z,5.5
2019-02-26T23:01:37.126Z,5.4
2019-02-26T23:06:33.164Z,5.3
2019-02-26T23:11:32.425Z,4.8
2019-02-26T23:16:27.727Z,5.3
2019-02-26T23:21:24.674Z,5.3
2019-02-26T23:26:21.752Z,5.2
2019-02-26T23:31:18.841Z,5.3
2019-02-26T23:36:15.893Z,5.3
2019-02-26T23:41:12.951Z,5.4
2019-02-26T23:46:09.612Z,5.4
2019-02-26T23:51:06.844Z,5.4
2019-02-26T23:56:03.545Z,5.4
